Current | Forecast
Updated: 5:00 PM JST on April 25, 2018
Observed at Wakkanai Airport, Japan
Temperature 50°F
Humidity 50%
Dew Point 32°F
Wind ESE at 6 mph
Pressure 29.80 in (Steady)
Conditions Clear
Visibility -
UV N/A
Clouds
Yesterday's Maximum 52°F
Yesterday's Minimum 48°F approx.
Yesterday's Heating Degree Days 15 approx.
Sunrise4:34 AM JST
Sunset6:33 PM JST
Moon Rise1:02 PM JST
Moon Set2:23 AM JST
Moon PhaseMoon Phase
Waxing Gibbous
Raw METARMETAR RJCW 250800Z 11005KT 070V160 CAVOK 10/M00 Q1009


Monday
. High: 51° F.
Tuesday
. High: 51° F.
Wednesday
. High: 50° F.
Thursday
. High: 51° F.
Friday
. High: 50° F.
Saturday
. High: 51° F.
Sunday
. High: 45° F.
Monday
. High: 46° F.

Units: English | Metric

Find the Weather for any City, State or Zipcode, or Country:

U.S. State List | Severe Weather | Tropical Storms | Ski Conditions
United States | Canada | Central America | South America | Asia | Europe | Australia | Africa | Islands

Weather Underground

© Copyright 2018
The Weather Company, LLC